createdAt,value
2017-10-04T00:00:48.426Z,12.43
2017-10-04T00:03:15.987Z,12.57
2017-10-04T00:05:43.532Z,12.50
2017-10-04T00:08:11.126Z,12.60
2017-10-04T00:10:38.650Z,12.56
2017-10-04T00:13:06.162Z,12.62
2017-10-04T00:15:33.731Z,12.56
2017-10-04T00:18:01.325Z,12.61
2017-10-04T00:20:29.129Z,12.56
2017-10-04T00:22:56.691Z,12.41
2017-10-04T00:25:24.217Z,12.39
2017-10-04T00:27:51.743Z,12.24
2017-10-04T00:30:19.373Z,12.15
2017-10-04T00:32:46.900Z,12.22
2017-10-04T00:35:14.430Z,12.19
2017-10-04T00:37:41.984Z,12.29
2017-10-04T00:40:09.512Z,12.51
2017-10-04T00:42:37.270Z,12.50
2017-10-04T00:45:04.826Z,12.54
2017-10-04T00:47:33.011Z,12.44
2017-10-04T00:50:00.546Z,12.48
2017-10-04T00:52:28.127Z,12.58
2017-10-04T00:54:55.695Z,12.57
2017-10-04T00:57:23.459Z,12.46
2017-10-04T00:59:51.021Z,12.44
2017-10-04T01:02:18.613Z,12.50
2017-10-04T01:04:46.153Z,12.48
2017-10-04T01:07:13.927Z,12.50
2017-10-04T01:09:41.481Z,12.40
2017-10-04T01:12:09.005Z,12.26
2017-10-04T01:14:36.553Z,12.33
2017-10-04T01:17:04.107Z,12.28
2017-10-04T01:19:31.655Z,12.14
2017-10-04T01:21:59.218Z,12.39
2017-10-04T01:24:26.801Z,12.31
2017-10-04T01:26:54.358Z,12.21
2017-10-04T01:29:21.889Z,12.18
2017-10-04T01:31:49.461Z,12.23
2017-10-04T01:34:17.241Z,11.95
2017-10-04T01:36:44.802Z,12.08
2017-10-04T01:39:12.397Z,12.11
2017-10-04T01:41:39.931Z,12.06
2017-10-04T01:44:07.724Z,12.20
2017-10-04T01:46:35.493Z,12.16
2017-10-04T01:49:03.016Z,12.11
2017-10-04T01:51:30.547Z,12.10
2017-10-04T01:53:58.119Z,12.10
2017-10-04T01:56:25.636Z,11.91
2017-10-04T01:58:53.462Z,11.90
2017-10-04T02:01:21.033Z,12.02
2017-10-04T02:03:48.774Z,12.11
2017-10-04T02:06:16.581Z,12.01
2017-10-04T02:08:44.166Z,11.93
2017-10-04T02:11:11.689Z,12.08
2017-10-04T02:13:39.297Z,12.07
2017-10-04T02:16:07.791Z,12.10
2017-10-04T02:18:35.351Z,12.02
2017-10-04T02:21:02.894Z,11.94
2017-10-04T02:23:30.483Z,11.96
2017-10-04T02:25:58.012Z,11.89
2017-10-04T02:28:25.558Z,11.80
2017-10-04T02:30:53.128Z,11.81
2017-10-04T02:33:20.682Z,11.82
2017-10-04T02:35:48.246Z,11.84
2017-10-04T02:38:15.833Z,11.89
2017-10-04T02:40:43.360Z,11.87
2017-10-04T02:43:10.895Z,11.98
2017-10-04T02:45:38.479Z,11.93
2017-10-04T02:48:06.030Z,11.77
2017-10-04T02:50:33.775Z,11.75
2017-10-04T02:53:01.334Z,11.79
2017-10-04T02:55:28.860Z,11.65
2017-10-04T02:57:56.376Z,11.67
2017-10-04T03:00:23.969Z,11.54
2017-10-04T03:02:51.486Z,11.52
2017-10-04T03:05:19.024Z,11.71
2017-10-04T03:07:46.608Z,11.67
2017-10-04T03:10:14.129Z,11.51
2017-10-04T03:12:41.687Z,11.44
2017-10-04T03:15:09.264Z,11.52
2017-10-04T03:17:36.794Z,11.60
2017-10-04T03:20:04.315Z,11.42
2017-10-04T03:22:31.909Z,11.08
2017-10-04T03:24:59.432Z,11.15
2017-10-04T03:27:27.174Z,10.82
2017-10-04T03:29:54.777Z,10.53
2017-10-04T03:32:22.566Z,11.01
2017-10-04T03:34:50.091Z,11.19
2017-10-04T03:37:17.619Z,11.18
2017-10-04T03:39:45.181Z,11.28
2017-10-04T03:42:12.755Z,11.29
2017-10-04T03:44:40.513Z,11.32
2017-10-04T03:47:08.732Z,11.29
2017-10-04T03:49:36.751Z,11.39
2017-10-04T03:52:04.271Z,11.45
2017-10-04T03:54:32.146Z,11.40
2017-10-04T03:56:59.663Z,11.33
2017-10-04T03:59:27.193Z,11.33
2017-10-04T04:01:55.034Z,11.33
2017-10-04T04:04:22.572Z,11.29
2017-10-04T04:06:50.117Z,11.32
2017-10-04T04:09:17.699Z,11.35
2017-10-04T04:11:45.543Z,11.36
2017-10-04T04:14:13.070Z,13.51
2017-10-04T04:16:40.658Z,14.63
2017-10-04T04:19:08.185Z,15.25
2017-10-04T04:21:35.701Z,15.87
2017-10-04T04:24:03.242Z,16.07
2017-10-04T04:26:30.766Z,14.65
2017-10-04T04:28:58.301Z,13.61
2017-10-04T04:31:25.855Z,12.80
2017-10-04T04:33:53.379Z,12.78
2017-10-04T04:36:20.898Z,12.57
2017-10-04T04:39:00.311Z,12.35
2017-10-04T04:41:27.847Z,12.52
2017-10-04T04:43:55.381Z,12.42
2017-10-04T04:46:22.945Z,12.63
2017-10-04T04:48:50.466Z,12.83
2017-10-04T04:51:17.988Z,12.94
2017-10-04T04:53:45.560Z,13.01
2017-10-04T04:56:13.085Z,13.19
2017-10-04T04:58:40.602Z,13.39
2017-10-04T05:01:08.386Z,13.72
2017-10-04T05:03:35.935Z,13.98
2017-10-04T05:06:03.693Z,14.12
2017-10-04T05:08:31.310Z,14.35
2017-10-04T05:10:58.834Z,14.41
2017-10-04T05:13:26.367Z,14.59
2017-10-04T05:15:54.004Z,14.74
2017-10-04T05:18:21.543Z,15.17
2017-10-04T05:20:49.053Z,15.44
2017-10-04T05:23:16.649Z,15.41
2017-10-04T05:25:44.186Z,15.58
2017-10-04T05:28:11.716Z,15.87
2017-10-04T05:30:39.635Z,16.06
2017-10-04T05:33:07.173Z,16.51
2017-10-04T05:35:34.725Z,16.52
2017-10-04T05:38:02.278Z,16.90
2017-10-04T05:40:29.802Z,17.10
2017-10-04T05:42:57.308Z,17.44
2017-10-04T05:45:24.902Z,17.60
2017-10-04T05:47:52.427Z,17.71
2017-10-04T05:50:19.965Z,17.91
2017-10-04T05:52:47.520Z,18.14
2017-10-04T05:55:15.038Z,18.33
2017-10-04T05:57:42.579Z,18.61
2017-10-04T06:00:10.260Z,18.41
2017-10-04T06:02:37.802Z,18.63
2017-10-04T06:05:05.340Z,18.83
2017-10-04T06:07:32.872Z,18.61
2017-10-04T06:10:00.404Z,19.00
2017-10-04T06:12:28.201Z,18.67
2017-10-04T06:14:56.037Z,19.30
2017-10-04T06:17:23.616Z,19.07
2017-10-04T06:19:51.139Z,18.99
2017-10-04T06:22:18.688Z,19.10
2017-10-04T06:24:46.227Z,19.78
2017-10-04T06:27:13.771Z,19.81
2017-10-04T06:29:41.325Z,19.70
2017-10-04T06:32:08.921Z,19.74
2017-10-04T06:34:36.448Z,19.81
2017-10-04T06:37:04.265Z,19.79
2017-10-04T06:39:31.826Z,19.93
2017-10-04T06:41:59.586Z,20.60
2017-10-04T06:44:27.119Z,20.73
2017-10-04T06:46:54.694Z,21.56
2017-10-04T06:49:22.203Z,20.85
2017-10-04T06:51:49.725Z,20.31
2017-10-04T06:54:17.287Z,20.42
2017-10-04T06:56:44.883Z,19.76
2017-10-04T06:59:12.426Z,19.58
2017-10-04T07:01:39.988Z,19.39
2017-10-04T07:04:07.866Z,19.65
2017-10-04T07:06:35.393Z,18.70
2017-10-04T07:09:02.945Z,18.45
2017-10-04T07:11:31.354Z,18.26
2017-10-04T07:13:58.866Z,18.22
2017-10-04T07:16:26.439Z,17.86
2017-10-04T07:18:54.311Z,17.77
2017-10-04T07:21:21.845Z,17.95
2017-10-04T07:23:49.425Z,17.43
2017-10-04T07:26:16.957Z,17.30
2017-10-04T07:28:44.474Z,17.23
2017-10-04T07:31:12.017Z,17.12
2017-10-04T07:33:39.566Z,17.19
2017-10-04T07:36:07.082Z,17.32
2017-10-04T07:38:34.626Z,17.26
2017-10-04T07:41:02.496Z,17.11
2017-10-04T07:43:30.071Z,17.08
2017-10-04T07:45:57.605Z,16.91
2017-10-04T07:48:25.169Z,16.77
2017-10-04T07:50:52.938Z,16.83
2017-10-04T07:53:21.091Z,16.74
2017-10-04T07:55:48.630Z,16.81
2017-10-04T07:58:16.173Z,16.95
2017-10-04T08:00:43.949Z,16.68
2017-10-04T08:03:11.495Z,16.47
2017-10-04T08:05:39.276Z,16.63
2017-10-04T08:08:06.825Z,16.70
2017-10-04T08:10:34.344Z,16.86
2017-10-04T08:13:02.116Z,17.12
2017-10-04T08:15:29.959Z,17.40
2017-10-04T08:17:57.589Z,18.05
2017-10-04T08:20:25.121Z,18.44
2017-10-04T08:22:52.681Z,18.51
2017-10-04T08:25:20.194Z,18.16
2017-10-04T08:27:47.726Z,18.33
2017-10-04T08:30:15.343Z,18.39
2017-10-04T08:32:42.914Z,18.42
2017-10-04T08:35:10.440Z,18.03
2017-10-04T08:37:38.029Z,18.17
2017-10-04T08:40:05.551Z,18.05
2017-10-04T08:42:33.071Z,18.03
2017-10-04T08:45:00.666Z,18.00
2017-10-04T08:47:40.118Z,18.27
2017-10-04T08:50:08.317Z,18.44
2017-10-04T08:52:35.845Z,18.33
2017-10-04T08:55:03.371Z,18.19
2017-10-04T08:57:30.943Z,18.01
2017-10-04T08:59:58.554Z,17.88
2017-10-04T09:02:26.129Z,17.89
2017-10-04T09:05:05.473Z,17.60
2017-10-04T09:07:33.050Z,17.61
2017-10-04T09:10:00.815Z,17.53
2017-10-04T09:12:28.336Z,17.62
2017-10-04T09:14:55.882Z,17.65
2017-10-04T09:17:23.421Z,17.88
2017-10-04T09:19:50.950Z,17.87
2017-10-04T09:22:18.514Z,17.92
2017-10-04T09:24:46.275Z,17.93
2017-10-04T09:27:13.799Z,17.72
2017-10-04T09:29:41.351Z,17.85
2017-10-04T09:32:08.957Z,17.89
2017-10-04T09:34:36.471Z,17.92
2017-10-04T09:37:04.009Z,17.67
2017-10-04T09:39:31.545Z,17.69
2017-10-04T09:41:59.130Z,17.84
2017-10-04T09:44:26.660Z,18.32
2017-10-04T09:46:54.214Z,18.32
2017-10-04T09:49:21.981Z,18.23
2017-10-04T09:51:49.526Z,18.10
2017-10-04T09:54:17.103Z,18.51
2017-10-04T09:56:44.625Z,19.02
2017-10-04T09:59:12.141Z,19.91
2017-10-04T10:01:39.693Z,20.04
2017-10-04T10:04:07.217Z,19.92
2017-10-04T10:06:34.746Z,19.92
2017-10-04T10:09:02.405Z,20.12
2017-10-04T10:11:29.920Z,20.46
2017-10-04T10:13:57.440Z,20.65
2017-10-04T10:16:25.006Z,20.88
2017-10-04T10:18:52.538Z,20.81
2017-10-04T10:21:20.063Z,20.40
2017-10-04T10:23:47.711Z,20.80
2017-10-04T10:26:17.110Z,20.64
2017-10-04T10:28:45.711Z,20.29
2017-10-04T10:31:13.386Z,20.42
2017-10-04T10:33:40.930Z,20.50
2017-10-04T10:36:08.637Z,20.25
2017-10-04T10:38:36.270Z,20.11
2017-10-04T10:41:04.028Z,20.21
2017-10-04T10:43:32.115Z,20.32
2017-10-04T10:46:00.800Z,20.30
2017-10-04T10:48:29.424Z,20.30
2017-10-04T10:50:57.054Z,20.62
2017-10-04T10:53:25.522Z,20.63
2017-10-04T10:55:53.155Z,20.92
2017-10-04T10:58:21.504Z,20.48
2017-10-04T11:00:49.093Z,20.25
2017-10-04T11:03:17.838Z,20.31
2017-10-04T11:05:45.441Z,20.55
2017-10-04T11:08:13.059Z,20.06
2017-10-04T11:10:40.644Z,19.83
2017-10-04T11:13:08.298Z,19.49
2017-10-04T11:15:35.885Z,19.32
2017-10-04T11:18:03.675Z,19.22
2017-10-04T11:20:31.443Z,19.10
2017-10-04T11:22:59.762Z,19.24
2017-10-04T11:25:27.587Z,19.30
2017-10-04T11:27:56.699Z,19.15
2017-10-04T11:30:24.902Z,19.56
2017-10-04T11:32:52.561Z,19.56
2017-10-04T11:35:20.402Z,19.71
2017-10-04T11:37:48.935Z,19.93
2017-10-04T11:40:17.318Z,20.34
2017-10-04T11:42:46.227Z,20.23
2017-10-04T11:45:13.825Z,20.29
2017-10-04T11:47:41.565Z,20.08
2017-10-04T11:50:09.084Z,19.97
2017-10-04T11:52:36.637Z,20.15
2017-10-04T11:55:04.162Z,20.52
2017-10-04T11:57:31.903Z,20.71
2017-10-04T11:59:59.474Z,21.03
2017-10-04T12:02:27.019Z,21.32
2017-10-04T12:04:54.522Z,21.61
2017-10-04T12:07:22.049Z,21.57
2017-10-04T12:09:49.627Z,21.38
2017-10-04T12:12:17.361Z,21.02
2017-10-04T12:14:44.869Z,20.55
2017-10-04T12:17:12.439Z,20.46
2017-10-04T12:19:40.960Z,20.37
2017-10-04T12:22:08.461Z,20.15
2017-10-04T12:24:36.006Z,20.10
2017-10-04T12:27:03.545Z,20.04
2017-10-04T12:29:31.278Z,20.06
2017-10-04T12:31:59.436Z,19.81
2017-10-04T12:34:27.182Z,19.71
2017-10-04T12:36:55.614Z,19.78
2017-10-04T12:39:36.197Z,19.53
2017-10-04T12:42:12.349Z,19.50
2017-10-04T12:44:40.358Z,19.57
2017-10-04T12:47:08.187Z,19.35
2017-10-04T12:49:35.699Z,19.11
2017-10-04T12:52:03.243Z,18.71
2017-10-04T12:54:30.759Z,18.61
2017-10-04T12:56:58.274Z,18.62
2017-10-04T12:59:25.871Z,18.51
2017-10-04T13:01:54.137Z,18.57
2017-10-04T13:04:21.655Z,18.52
2017-10-04T13:06:50.102Z,18.51
2017-10-04T13:09:17.647Z,18.66
2017-10-04T13:11:45.176Z,18.79
2017-10-04T13:14:12.682Z,18.77
2017-10-04T13:16:40.226Z,18.81
2017-10-04T13:19:07.747Z,18.85
2017-10-04T13:21:35.255Z,18.73
2017-10-04T13:24:03.039Z,18.83
2017-10-04T13:26:30.598Z,18.98
2017-10-04T13:28:58.125Z,18.72
2017-10-04T13:31:25.704Z,18.63
2017-10-04T13:33:53.276Z,18.69
2017-10-04T13:36:21.304Z,18.53
2017-10-04T13:38:48.864Z,18.48
2017-10-04T13:41:16.621Z,18.61
2017-10-04T13:43:44.152Z,18.45
2017-10-04T13:46:11.713Z,18.56
2017-10-04T13:48:39.243Z,18.65
2017-10-04T13:51:07.009Z,18.54
2017-10-04T13:53:34.588Z,18.58
2017-10-04T13:56:02.374Z,18.59
2017-10-04T13:58:29.900Z,18.59
2017-10-04T14:00:57.496Z,18.52
2017-10-04T14:03:25.022Z,18.54
2017-10-04T14:05:52.770Z,18.78
2017-10-04T14:08:20.332Z,18.70
2017-10-04T14:10:49.012Z,18.76
2017-10-04T14:13:16.781Z,18.75
2017-10-04T14:15:44.365Z,18.65
2017-10-04T14:18:11.881Z,18.74
2017-10-04T14:20:39.400Z,18.74
2017-10-04T14:23:07.190Z,18.87
2017-10-04T14:25:35.491Z,18.82
2017-10-04T14:28:03.026Z,18.52
2017-10-04T14:30:31.925Z,18.66
2017-10-04T14:32:59.672Z,18.55
2017-10-04T14:35:27.770Z,18.48
2017-10-04T14:37:55.491Z,18.50
2017-10-04T14:40:23.527Z,18.59
2017-10-04T14:42:51.123Z,18.55
2017-10-04T14:45:19.479Z,18.68
2017-10-04T14:47:47.910Z,18.56
2017-10-04T14:50:15.696Z,18.63
2017-10-04T14:52:43.315Z,18.67
2017-10-04T14:55:10.896Z,18.61
2017-10-04T14:57:38.521Z,18.56
2017-10-04T15:00:06.171Z,18.68
2017-10-04T15:02:33.739Z,18.66
2017-10-04T15:05:01.374Z,18.61
2017-10-04T15:07:29.150Z,18.59
2017-10-04T15:09:56.979Z,18.54
2017-10-04T15:12:25.140Z,18.53
2017-10-04T15:14:53.653Z,18.52
2017-10-04T15:17:21.741Z,18.60
2017-10-04T15:19:50.347Z,18.46
2017-10-04T15:22:17.953Z,18.53
2017-10-04T15:24:45.832Z,18.55
2017-10-04T15:27:13.649Z,18.46
2017-10-04T15:29:41.462Z,18.44
2017-10-04T15:32:09.304Z,18.48
2017-10-04T15:34:36.810Z,18.45
2017-10-04T15:37:04.312Z,18.46
2017-10-04T15:39:31.931Z,18.43
2017-10-04T15:41:59.434Z,18.27
2017-10-04T15:44:28.459Z,18.26
2017-10-04T15:46:56.095Z,18.17
2017-10-04T15:49:23.906Z,18.10
2017-10-04T15:51:51.755Z,18.19
2017-10-04T15:54:19.321Z,18.18
2017-10-04T15:56:46.861Z,18.14
2017-10-04T15:59:14.406Z,18.19
2017-10-04T16:01:41.996Z,18.09
2017-10-04T16:04:09.529Z,17.99
2017-10-04T16:06:37.370Z,17.93
2017-10-04T16:09:04.966Z,17.95
2017-10-04T16:11:32.657Z,17.81
2017-10-04T16:14:00.175Z,17.81
2017-10-04T16:16:27.734Z,17.78
2017-10-04T16:18:56.341Z,17.64
2017-10-04T16:21:23.866Z,17.62
2017-10-04T16:23:51.678Z,17.50
2017-10-04T16:26:19.548Z,17.56
2017-10-04T16:28:47.067Z,17.49
2017-10-04T16:31:15.315Z,17.47
2017-10-04T16:33:43.063Z,17.46
2017-10-04T16:36:10.827Z,17.36
2017-10-04T16:38:38.493Z,17.33
2017-10-04T16:41:06.300Z,17.37
2017-10-04T16:43:33.847Z,17.31
2017-10-04T16:46:01.490Z,17.29
2017-10-04T16:48:29.605Z,17.28
2017-10-04T16:50:57.954Z,17.02
2017-10-04T16:53:25.542Z,17.18
2017-10-04T16:55:53.547Z,17.07
2017-10-04T16:58:21.641Z,17.12
2017-10-04T17:00:50.195Z,17.09
2017-10-04T17:03:18.431Z,17.09
2017-10-04T17:05:45.988Z,17.15
2017-10-04T17:08:14.269Z,17.18
2017-10-04T17:10:42.041Z,17.14
2017-10-04T17:13:09.570Z,17.13
2017-10-04T17:15:37.172Z,17.07
2017-10-04T17:18:04.897Z,16.93
2017-10-04T17:20:32.477Z,16.88
2017-10-04T17:23:00.054Z,16.86
2017-10-04T17:25:28.490Z,16.80
2017-10-04T17:27:56.034Z,16.80
2017-10-04T17:30:23.699Z,16.71
2017-10-04T17:32:51.278Z,16.73
2017-10-04T17:35:18.911Z,16.72
2017-10-04T17:37:46.724Z,16.66
2017-10-04T17:40:15.245Z,16.86
2017-10-04T17:42:43.040Z,17.16
2017-10-04T17:45:10.666Z,16.97
2017-10-04T17:47:38.300Z,16.74
2017-10-04T17:50:06.191Z,16.74
2017-10-04T17:52:33.968Z,16.66
2017-10-04T17:55:01.736Z,16.53
2017-10-04T17:57:30.171Z,16.46
2017-10-04T17:59:58.080Z,16.48
2017-10-04T18:02:25.668Z,16.53
2017-10-04T18:04:53.201Z,16.50
2017-10-04T18:07:20.988Z,16.49
2017-10-04T18:09:49.358Z,16.48
2017-10-04T18:12:17.781Z,16.23
2017-10-04T18:14:45.627Z,16.26
2017-10-04T18:17:14.057Z,16.29
2017-10-04T18:19:41.895Z,16.33
2017-10-04T18:22:09.428Z,16.20
2017-10-04T18:24:36.994Z,16.25
2017-10-04T18:27:04.527Z,16.34
2017-10-04T18:29:32.069Z,16.20
2017-10-04T18:31:59.637Z,16.24
2017-10-04T18:34:27.459Z,16.23
2017-10-04T18:36:55.456Z,16.18
2017-10-04T18:39:23.062Z,16.12
2017-10-04T18:41:50.587Z,16.11
2017-10-04T18:44:18.103Z,16.07
2017-10-04T18:46:45.642Z,15.97
2017-10-04T18:49:18.050Z,16.02
2017-10-04T18:51:45.702Z,16.02
2017-10-04T18:54:13.227Z,16.00
2017-10-04T18:56:43.125Z,15.97
2017-10-04T18:59:10.746Z,15.91
2017-10-04T19:01:38.335Z,15.92
2017-10-04T19:04:05.875Z,15.87
2017-10-04T19:06:33.939Z,15.79
2017-10-04T19:09:01.535Z,15.76
2017-10-04T19:11:29.046Z,15.81
2017-10-04T19:13:56.584Z,15.77
2017-10-04T19:16:24.134Z,15.67
2017-10-04T19:18:53.453Z,15.71
2017-10-04T19:21:20.984Z,15.62
2017-10-04T19:23:48.557Z,15.57
2017-10-04T19:26:16.078Z,15.47
2017-10-04T19:28:43.613Z,15.48
2017-10-04T19:31:11.198Z,15.27
2017-10-04T19:33:38.723Z,15.36
2017-10-04T19:36:06.251Z,15.41
2017-10-04T19:38:33.814Z,15.30
2017-10-04T19:41:01.333Z,15.28
2017-10-04T19:43:28.965Z,15.28
2017-10-04T19:45:57.335Z,15.19
2017-10-04T19:48:25.936Z,15.08
2017-10-04T19:50:53.683Z,15.15
2017-10-04T19:53:21.667Z,15.13
2017-10-04T19:55:49.542Z,14.89
2017-10-04T19:58:17.070Z,14.58
2017-10-04T20:00:44.634Z,14.49
2017-10-04T20:03:13.146Z,14.41
2017-10-04T20:05:40.732Z,14.41
2017-10-04T20:08:08.303Z,14.25
2017-10-04T20:10:35.831Z,14.43
2017-10-04T20:13:03.362Z,14.41
2017-10-04T20:15:31.163Z,14.36
2017-10-04T20:17:58.690Z,14.43
2017-10-04T20:20:26.204Z,14.36
2017-10-04T20:22:53.775Z,14.11
2017-10-04T20:25:21.354Z,14.14
2017-10-04T20:27:49.116Z,14.12
2017-10-04T20:30:16.693Z,13.85
2017-10-04T20:32:44.559Z,13.76
2017-10-04T20:35:12.096Z,13.51
2017-10-04T20:37:39.637Z,13.45
2017-10-04T20:40:07.150Z,13.37
2017-10-04T20:42:34.666Z,13.42
2017-10-04T20:45:02.235Z,13.42
2017-10-04T20:47:29.800Z,13.37
2017-10-04T20:49:57.320Z,13.49
2017-10-04T20:52:24.888Z,13.51
2017-10-04T20:54:52.658Z,13.44
2017-10-04T20:57:20.182Z,13.49
2017-10-04T20:59:47.781Z,13.42
2017-10-04T21:02:15.356Z,13.34
2017-10-04T21:04:42.899Z,13.33
2017-10-04T21:07:10.470Z,13.42
2017-10-04T21:09:38.052Z,13.52
2017-10-04T21:12:05.590Z,13.62
2017-10-04T21:14:33.122Z,13.49
2017-10-04T21:17:00.693Z,13.54
2017-10-04T21:19:28.441Z,13.60
2017-10-04T21:21:55.955Z,13.45
2017-10-04T21:24:23.778Z,13.16
2017-10-04T21:26:51.567Z,12.64
2017-10-04T21:29:19.213Z,12.49
2017-10-04T21:31:46.759Z,12.52
2017-10-04T21:34:15.274Z,12.55
2017-10-04T21:36:43.021Z,12.34
2017-10-04T21:39:10.597Z,12.32
2017-10-04T21:41:38.123Z,12.55
2017-10-04T21:44:05.910Z,12.70
2017-10-04T21:46:33.485Z,12.74
2017-10-04T21:49:01.009Z,12.33
2017-10-04T21:51:28.526Z,12.05
2017-10-04T21:53:56.071Z,12.24
2017-10-04T21:56:23.944Z,12.28
2017-10-04T21:58:51.472Z,12.08
2017-10-04T22:01:19.036Z,12.12
2017-10-04T22:03:46.576Z,12.24
2017-10-04T22:06:14.109Z,12.53
2017-10-04T22:08:41.930Z,12.63
2017-10-04T22:11:09.469Z,12.56
2017-10-04T22:13:37.730Z,12.57
2017-10-04T22:16:05.319Z,12.67
2017-10-04T22:18:32.853Z,12.66
2017-10-04T22:21:00.613Z,12.55
2017-10-04T22:23:28.216Z,12.64
2017-10-04T22:25:55.776Z,12.77
2017-10-04T22:28:23.334Z,12.83
2017-10-04T22:30:50.887Z,12.87
2017-10-04T22:33:18.408Z,12.78
2017-10-04T22:35:46.261Z,12.86
2017-10-04T22:38:13.797Z,12.79
2017-10-04T22:40:41.532Z,12.72
2017-10-04T22:43:09.055Z,12.77
2017-10-04T22:45:36.602Z,12.72
2017-10-04T22:48:04.137Z,12.58
2017-10-04T22:50:31.655Z,12.35
2017-10-04T22:52:59.220Z,12.52
2017-10-04T22:55:26.750Z,12.66
2017-10-04T22:57:54.328Z,12.45
2017-10-04T23:00:21.902Z,12.52
2017-10-04T23:02:50.311Z,12.55
2017-10-04T23:05:18.086Z,12.39
2017-10-04T23:07:45.685Z,12.49
2017-10-04T23:10:13.477Z,12.45
2017-10-04T23:12:41.001Z,12.35
2017-10-04T23:15:08.614Z,12.15
2017-10-04T23:17:36.156Z,12.24
2017-10-04T23:20:04.475Z,12.15
2017-10-04T23:22:32.323Z,12.06
2017-10-04T23:24:59.840Z,12.09
2017-10-04T23:27:27.584Z,12.01
2017-10-04T23:29:55.134Z,12.00
2017-10-04T23:32:22.681Z,11.92
2017-10-04T23:34:50.433Z,11.93
2017-10-04T23:37:17.946Z,11.83
2017-10-04T23:39:45.495Z,11.88
2017-10-04T23:42:13.027Z,11.82
2017-10-04T23:44:40.550Z,12.07
2017-10-04T23:47:08.089Z,12.00
2017-10-04T23:49:35.633Z,11.94
2017-10-04T23:52:03.157Z,11.89
2017-10-04T23:54:30.735Z,11.76
2017-10-04T23:56:58.607Z,11.82
2017-10-04T23:59:26.171Z,11.78
